»·PEaware :: N172RP KSMX-KBFL

N172RP :: KSMX-KBFL

FLIGHT INFORMATION

Flight Status: Arrived
Operator: Privately registered:
United States
More flights under this callsign
Pilot: Aryan P. (32016)
Aircraft: CESSNA 172 SKYHAWK
(C172)
More flights by this aircraft type
Origin: KSMX Santa Maria Pub/Capt Hancock
United States
Destination: KBFL Meadows
United States
More flights between these airports :: More routes between these airports
Route:
File this flight plan on PilotEdge
Remarks:
Altitude:
(Current/Filed)
7,500ft
Speed:
(Current/Filed)
150kts
Departed: 15-Dec-20 06:09 PM
Arrived: 15-Dec-20 07:42 PM
Distance/Time
Traveled:
76nm/1:33
Distance/Time
To Go:
Arrived

Flight Plot

Page will automatically refresh every two minutes.


Map Options




Map Legend


Flown Route
Filed Route
Departure Airport
Arrival Airport
Navaid (VOR, NDB)
Fix

Horizontal Profiles

Position Reports

Time Latitude Longitude Heading Altitude Ground
Speed
15-Dec-20 18:00 34.890953 -120.447272 189 263ft 0kts
15-Dec-20 18:01 34.890953 -120.447272 189 263ft 0kts
15-Dec-20 18:02 34.890953 -120.447272 189 263ft 0kts
15-Dec-20 18:03 34.890953 -120.447272 189 263ft 0kts
15-Dec-20 18:04 34.890953 -120.447272 189 263ft 0kts
15-Dec-20 18:05 34.891353 -120.447217 353 263ft 0kts
15-Dec-20 18:06 34.892130 -120.446418 47 264ft 0kts
15-Dec-20 18:07 34.892130 -120.446418 47 264ft 0kts
15-Dec-20 18:08 34.897928 -120.452071 315 250ft 90kts
15-Dec-20 18:09 34.914920 -120.458969 58 730ft 105kts
15-Dec-20 18:10 34.920094 -120.447839 59 975ft 110kts
15-Dec-20 18:11 34.928353 -120.430914 55 1718ft 65kts
15-Dec-20 18:12 34.937771 -120.414182 55 2267ft 58kts
15-Dec-20 18:13 34.946910 -120.397218 56 2709ft 63kts
15-Dec-20 18:14 34.956942 -120.378899 53 3081ft 87kts
15-Dec-20 18:15 34.968841 -120.352470 60 3652ft 102kts
15-Dec-20 18:16 34.982767 -120.322307 59 4303ft 96kts
15-Dec-20 18:17 34.996686 -120.293861 58 4883ft 100kts
15-Dec-20 18:18 35.004490 -120.278696 58 5176ft 100kts
15-Dec-20 18:19 35.010175 -120.267226 58 5231ft 99kts
15-Dec-20 18:20 35.023335 -120.236451 66 5106ft 102kts
15-Dec-20 18:21 35.035904 -120.205949 18 4924ft 108kts
15-Dec-20 18:22 0.000408 0.013975 359 3ft 0kts
15-Dec-20 18:23 0.000408 0.013975 359 3ft 0kts
15-Dec-20 18:24 0.000408 0.013975 359 3ft 0kts
15-Dec-20 18:25 34.890953 -120.447272 189 263ft 0kts
15-Dec-20 18:26 34.890953 -120.447272 189 263ft 0kts
15-Dec-20 18:27 34.890953 -120.447272 189 263ft 0kts
15-Dec-20 18:28 34.890953 -120.447272 189 263ft 0kts
15-Dec-20 18:29 34.890953 -120.447272 189 263ft 0kts
15-Dec-20 18:30 34.890953 -120.447272 189 263ft 0kts
15-Dec-20 18:31 34.890953 -120.447272 189 263ft 0kts
15-Dec-20 18:32 34.890953 -120.447272 189 263ft 0kts
15-Dec-20 18:33 34.890953 -120.447272 189 263ft 0kts
15-Dec-20 18:34 34.890953 -120.447272 189 263ft 0kts
15-Dec-20 18:35 34.890953 -120.447272 189 263ft 0kts
15-Dec-20 18:36 34.890953 -120.447272 189 263ft 0kts
15-Dec-20 18:37 34.890953 -120.447272 189 263ft 0kts
15-Dec-20 18:38 34.891318 -120.447225 1 263ft 7kts
15-Dec-20 18:39 34.891923 -120.446654 48 264ft 17kts
15-Dec-20 18:40 34.892621 -120.445952 357 265ft 18kts
15-Dec-20 18:41 34.908773 -120.461889 9 687ft 87kts
15-Dec-20 18:42 34.922037 -120.441036 54 1636ft 61kts
15-Dec-20 18:43 34.931286 -120.423341 58 2104ft 74kts
15-Dec-20 18:44 34.937998 -120.410487 56 2503ft 74kts
15-Dec-20 18:45 34.948943 -120.389156 57 3186ft 74kts
15-Dec-20 18:46 34.960694 -120.367923 55 3844ft 75kts
15-Dec-20 18:47 34.971457 -120.345600 62 4275ft 77kts
15-Dec-20 18:48 34.981487 -120.320657 61 4352ft 84kts
15-Dec-20 18:49 34.992051 -120.294404 60 4469ft 84kts
15-Dec-20 18:50 34.997652 -120.284769 50 4528ft 80kts
15-Dec-20 18:51 35.000208 -120.281394 39 4642ft 76kts
15-Dec-20 18:52 35.000208 -120.281394 39 4642ft 76kts
15-Dec-20 18:53 35.000208 -120.281394 39 4642ft 76kts
15-Dec-20 18:54 35.002657 -120.279376 29 4589ft 61kts
15-Dec-20 18:55 35.014738 -120.259568 58 4523ft 86kts
15-Dec-20 18:56 35.026602 -120.234957 60 4658ft 84kts
15-Dec-20 18:57 35.038510 -120.209381 58 4726ft 90kts
15-Dec-20 18:58 35.051501 -120.182921 58 4801ft 86kts
15-Dec-20 18:59 35.061128 -120.164091 51 4857ft 90kts
15-Dec-20 19:00 35.070794 -120.149572 42 4987ft 67kts
15-Dec-20 19:01 35.084096 -120.127175 57 4936ft 90kts
15-Dec-20 19:02 35.097447 -120.101350 56 4958ft 94kts
15-Dec-20 19:03 35.113303 -120.075495 58 5020ft 82kts
15-Dec-20 19:04 35.125704 -120.048192 60 4881ft 103kts
15-Dec-20 19:05 35.137944 -120.020304 64 5060ft 75kts
15-Dec-20 19:06 35.148080 -119.995139 63 5033ft 90kts
15-Dec-20 19:07 35.160148 -119.964223 64 4846ft 101kts
15-Dec-20 19:08 35.171044 -119.933328 66 4793ft 100kts
15-Dec-20 19:09 35.181102 -119.904790 66 4912ft 91kts
15-Dec-20 19:10 35.191460 -119.876442 62 5049ft 74kts
15-Dec-20 19:11 35.201086 -119.854094 59 5089ft 80kts
15-Dec-20 19:12 35.211529 -119.822875 72 4846ft 78kts
15-Dec-20 19:13 35.219474 -119.798237 69 4812ft 92kts
15-Dec-20 19:14 35.228724 -119.769281 69 4864ft 92kts
15-Dec-20 19:15 35.237814 -119.741008 64 4987ft 86kts
15-Dec-20 19:16 35.244965 -119.720578 62 5053ft 83kts
15-Dec-20 19:17 35.251736 -119.705833 64 5075ft 78kts
15-Dec-20 19:18 35.258035 -119.691110 59 5089ft 80kts
15-Dec-20 19:19 35.269049 -119.663646 65 4972ft 97kts
15-Dec-20 19:20 35.280630 -119.632176 67 4806ft 103kts
15-Dec-20 19:21 35.292127 -119.597732 67 4449ft 110kts
15-Dec-20 19:22 35.303897 -119.566245 68 4407ft 102kts
15-Dec-20 19:23 35.312800 -119.529496 73 3929ft 112kts
15-Dec-20 19:24 35.321794 -119.493525 70 3650ft 108kts
15-Dec-20 19:25 35.332231 -119.460325 68 3558ft 101kts
15-Dec-20 19:27 35.341511 -119.430667 68 3661ft 91kts
15-Dec-20 19:28 35.351421 -119.398163 69 3419ft 107kts
15-Dec-20 19:29 35.361163 -119.364440 70 3349ft 98kts
15-Dec-20 19:30 35.369981 -119.331439 72 3244ft 101kts
15-Dec-20 19:31 35.378232 -119.299799 72 3287ft 97kts
15-Dec-20 19:32 35.386879 -119.268825 73 3295ft 99kts
15-Dec-20 19:33 35.391799 -119.251707 59 3318ft 66kts
15-Dec-20 19:34 35.399956 -119.225484 70 3213ft 98kts
15-Dec-20 19:35 35.404511 -119.188620 85 2767ft 114kts
15-Dec-20 19:36 35.414687 -119.152544 58 2373ft 114kts
15-Dec-20 19:37 35.427857 -119.116110 72 1803ft 118kts
15-Dec-20 19:38 35.433991 -119.075460 104 896ft 125kts
15-Dec-20 19:39 35.415034 -119.068766 243 1044ft 88kts
15-Dec-20 19:40 35.429720 -119.081564 331 1204ft 69kts
15-Dec-20 19:41 35.421608 -119.057375 115 1085ft 82kts
15-Dec-20 19:42 35.435265 -119.057921 332 496ft 18kts
15-Dec-20 19:42 35.436229 -119.057801 39 494ft 0kts
15-Dec-20 19:43 35.436229 -119.057801 39 494ft 0kts
15-Dec-20 19:45 35.436229 -119.057801 39 494ft 0kts
15-Dec-20 19:46 35.437688 -119.056541 46 497ft 0kts

Navigation Log

Ident Type
Flight plan parsing failed, navigation log unavailable